• Join FlightAware (Why Join?)
  • Login
  • US Flag 
03:16AM EDT


 

Airport Tracker/Info


-or-


 

Live Flight TrackerFlight Track Log ✈ N36VE ✈ 11-Jan-2013 ✈ KLBF - KJYR

Flight Track Log - Related Links

Times and Time Zones

All times are in EST time to prevent confusion due to time zone crossing. See the N36VE flight status page for this flight to view local times or setup timezone preferences in your user account.

Time Position Orientation Groundspeed Altitude Reporting Facility
EST Latitude Longitude Course Direction KTS MPH feet Rate Location/Type
04:47PM 41.1364 -100.6972 95° East 111 128 3,400  Level Denver Center
04:48PM 41.1583 -100.6847 23° Northeast 114 131 4,200 780 Climbing Denver Center
04:49PM 41.1758 -100.6447 60° Northeast 127 146 5,000 780 Climbing Denver Center
04:50PM 41.1858 -100.5975 74° East 122 140 5,900 660 Climbing Denver Center
04:51PM 41.0981 -100.3232 95° East  Level FlightAware Approximate
04:51PM 41.1908 -100.5581 80° East 117 135 6,400  Level Denver Center
04:52PM 41.0930 -100.2512 95° East  Level FlightAware Approximate
04:52PM 41.1964 -100.5036 82° East 126 145 6,900  Level Denver Center
04:53PM 41.2042 -100.4703 73° East 113 130 3,800 -3,000 Descending Denver Center
04:55PM 41.1944 -100.3685 108° East  Level Estimated
05:02PM 41.1449 -99.8661 95° East  Level Estimated
05:03PM 41.1329 -99.7955 103° East  Level FlightAware Approximate
05:04PM 41.1208 -99.7250 103° East  Level FlightAware Approximate
05:05PM 41.1087 -99.6544 103° East  Level FlightAware Approximate
05:06PM 41.0966 -99.5839 103° East  Level FlightAware Approximate
05:07PM 41.0844 -99.5135 103° East  Level FlightAware Approximate
05:08PM 41.0721 -99.4430 103° East  Level FlightAware Approximate
05:09PM 41.0598 -99.3726 103° East  Level FlightAware Approximate
05:10PM 41.0475 -99.3022 103° East  Level FlightAware Approximate
05:11PM 41.0351 -99.2319 103° East  Level FlightAware Approximate
05:12PM 41.0227 -99.1615 103° East  Level FlightAware Approximate
05:13PM 41.0103 -99.0912 103° East  Level FlightAware Approximate
05:14PM 41.0051 -99.0193 93° East  Level Estimated
05:15PM 41.0012 -98.9473 94° East  Level FlightAware Approximate
05:16PM 40.9972 -98.8753 94° East  Level FlightAware Approximate
05:17PM 40.9931 -98.8033 94° East  Level FlightAware Approximate
05:18PM 40.9890 -98.7313 94° East  Level FlightAware Approximate
05:19PM 40.9849 -98.6594 94° East  Level FlightAware Approximate
05:20PM 40.9790 -98.5876 96° East  Level Estimated
05:21PM 40.9732 -98.5158 96° East  Level FlightAware Approximate
05:22PM 40.9674 -98.4441 96° East  Level FlightAware Approximate
05:23PM 40.9615 -98.3723 96° East  Level FlightAware Approximate
05:24PM 40.9556 -98.3006 96° East  Level FlightAware Approximate
05:25PM 40.9495 -98.2289 97° East  Level Estimated
05:26PM 40.9424 -98.1574 97° East  Level FlightAware Approximate
05:27PM 40.9353 -98.0859 98° East  Level FlightAware Approximate
05:28PM 40.9294 -98.0142 97° East  Level Estimated
05:29PM 40.9214 -97.9428 98° East  Level FlightAware Approximate
05:30PM 40.9159 -97.8711 102° East  Level Estimated
05:31PM 40.9103 -97.7993 97° East  Level Estimated
05:32PM 40.8999 -97.7286 101° East  Level FlightAware Approximate
05:33PM 40.8894 -97.6578 101° East  Level FlightAware Approximate
05:34PM 40.8833 -97.6167 97° East  Level FlightAware Approximate
05:35PM 40.8964 -97.6241 97° East  Level Estimated
05:36PM 40.8964 -97.6241 97° East  Level Estimated
05:37PM 40.8964 -97.6241 97° East  Level Estimated
05:38PM 40.8964 -97.6241 97° East  Level Estimated
05:39PM 40.8964 -97.6241 97° East  Level Estimated
05:40PM 40.8964 -97.6241 97° East  Level Estimated
05:41PM 40.8964 -97.6241 97° East  Level Estimated
05:42PM 40.8964 -97.6241 97° East  Level Estimated
05:43PM 40.8964 -97.6241 97° East  Level Estimated
05:44PM 40.8964 -97.6241 97° East  Level Estimated